Time;durP1;ratioP1;P1;durP2;ratioP2;P2;SDS_P1;SDS_P2;PMS_P1;PMS_P2;Temp;Humidity;BMP_temperature;BMP_pressure;BME280_temperature;BME280_humidity;BME280_pressure;Samples;Min_cycle;Max_cycle;Signal;HPM_P1;HPM_P2
2023/08/22 00:00:33;;;;;;;;;;;;;;;;;;4907890;29;19950;-81
2023/08/22 00:02:58;;;;;;;;;;;;;;;;;;4922403;29;19926;-81
2023/08/22 00:05:23;;;;;;;;;;;;;;;;;;4908399;29;19922;-82
2023/08/22 00:07:49;;;;;;;;;;;;;;;;;;4906604;29;19941;-81
2023/08/22 00:10:15;;;;;;;;;;;;;;;;;;4912048;29;20008;-82
2023/08/22 00:12:40;;;;;;;;;;;;;;;;;;4917917;29;19919;-82
2023/08/22 00:15:09;;;;;;;;;;;;;;;;;;4910650;29;19923;-82
2023/08/22 00:17:34;;;;;;;;;;;;;;;;;;4909597;29;20260;-81
2023/08/22 00:19:59;;;;;;;;;;;;;;;;;;4897673;29;19919;-82
2023/08/22 00:22:25;;;;;;;;;;;;;;;;;;4913230;29;20454;-82
2023/08/22 00:24:50;;;;;;;;;;;;;;;;;;4911761;29;20668;-83
2023/08/22 00:27:15;;;;;;;;;;;;;;;;;;4900796;29;19994;-82
2023/08/22 00:29:41;;;;;;;;;;;;;;;;;;4903531;29;20448;-83
2023/08/22 00:32:06;;;;;;;;;;;;;;;;;;4896023;29;20290;-83
2023/08/22 00:34:31;;;;;;;;;;;;;;;;;;4912590;29;19914;-82
2023/08/22 00:36:56;;;;;;;;;;;;;;;;;;4888202;29;20362;-82
2023/08/22 00:39:24;;;;;;;;;;;;;;;;;;4905797;29;19926;-82
2023/08/22 00:41:54;;;;;;;;;;;;;;;;;;4910033;29;19946;-83
2023/08/22 00:44:20;;;;;;;;;;;;;;;;;;4912106;29;19935;-82
2023/08/22 00:46:45;;;;;;;;;;;;;;;;;;4893538;29;19923;-82
2023/08/22 00:49:10;;;;;;;;;;;;;;;;;;4914324;29;19919;-82
2023/08/22 00:51:36;;;;;;;;;;;;;;;;;;4910346;29;19961;-82
2023/08/22 00:54:02;;;;;;;;;;;;;;;;;;4904034;29;20315;-83
2023/08/22 00:56:27;;;;;;;;;;;;;;;;;;4911100;29;19930;-82
2023/08/22 00:58:52;;;;;;;;;;;;;;;;;;4927004;29;19915;-83
2023/08/22 01:01:18;;;;;;;;;;;;;;;;;;4910866;29;19974;-82
2023/08/22 01:03:44;;;;;;;;;;;;;;;;;;4923424;29;19969;-83
2023/08/22 01:06:15;;;;;;;;;;;;;;;;;;4910318;29;20354;-83
2023/08/22 01:08:40;;;;;;;;;;;;;;;;;;4899065;29;19947;-83
2023/08/22 01:11:15;;;;;;;;;;;;;;;;;;4891394;29;19930;-83
2023/08/22 01:13:42;;;;;;;;;;;;;;;;;;4913757;29;19919;-82
2023/08/22 01:16:07;;;;;;;;;;;;;;;;;;4874302;29;20539;-82
2023/08/22 01:18:33;;;;;;;;;;;;;;;;;;4905102;29;20035;-82
2023/08/22 01:20:58;;;;;;;;;;;;;;;;;;4900102;29;19923;-83
2023/08/22 01:23:23;;;;;;;;;;;;;;;;;;4895812;29;19915;-82
2023/08/22 01:25:49;;;;;;;;;;;;;;;;;;4920205;29;19925;-82
2023/08/22 01:28:14;;;;;;;;;;;;;;;;;;4894209;29;20367;-83
2023/08/22 01:30:45;;;;;;;;;;;;;;;;;;4907353;29;19918;-82
2023/08/22 01:33:16;;;;;;;;;;;;;;;;;;4916449;29;19915;-83
2023/08/22 01:35:41;;;;;;;;;;;;;;;;;;4910501;29;19942;-83
2023/08/22 01:38:06;;;;;;;;;;;;;;;;;;4907465;29;20434;-82
2023/08/22 01:40:34;;;;;;;;;;;;;;;;;;4924729;29;19918;-81
2023/08/22 01:42:59;;;;;;;;;;;;;;;;;;4901824;29;20333;-82
2023/08/22 01:45:25;;;;;;;;;;;;;;;;;;4885021;29;19926;-82
2023/08/22 01:47:50;;;;;;;;;;;;;;;;;;4908155;29;19969;-83
2023/08/22 01:50:16;;;;;;;;;;;;;;;;;;4907970;29;19919;-82
2023/08/22 01:52:41;;;;;;;;;;;;;;;;;;4910822;29;20642;-82
2023/08/22 01:55:06;;;;;;;;;;;;;;;;;;4900897;29;19919;-82
2023/08/22 01:57:32;;;;;;;;;;;;;;;;;;4892116;29;19923;-82
2023/08/22 01:59:58;;;;;;;;;;;;;;;;;;4907417;29;19946;-82
2023/08/22 02:02:23;;;;;;;;;;;;;;;;;;4908194;29;20609;-82
2023/08/22 02:04:48;;;;;;;;;;;;;;;;;;4909021;29;19923;-83
2023/08/22 02:07:14;;;;;;;;;;;;;;;;;;4908541;29;19919;-82
2023/08/22 02:09:39;;;;;;;;;;;;;;;;;;4908587;29;19918;-82
2023/08/22 02:12:04;;;;;;;;;;;;;;;;;;4922564;29;19950;-82
2023/08/22 02:14:30;;;;;;;;;;;;;;;;;;4909318;29;19919;-82
2023/08/22 02:16:55;;;;;;;;;;;;;;;;;;4921346;29;19941;-82
2023/08/22 02:19:20;;;;;;;;;;;;;;;;;;4906661;29;20001;-82
2023/08/22 02:21:46;;;;;;;;;;;;;;;;;;4908799;29;19954;-83
2023/08/22 02:24:11;;;;;;;;;;;;;;;;;;4910450;29;19926;-82
2023/08/22 02:26:37;;;;;;;;;;;;;;;;;;4893020;29;20045;-82
2023/08/22 02:29:03;;;;;;;;;;;;;;;;;;4898400;29;20311;-82
2023/08/22 02:31:31;;;;;;;;;;;;;;;;;;4881685;29;20007;-82
2023/08/22 02:33:56;;;;;;;;;;;;;;;;;;4898232;29;19923;-82
2023/08/22 02:36:21;;;;;;;;;;;;;;;;;;4906648;29;19919;-83
2023/08/22 02:38:47;;;;;;;;;;;;;;;;;;4908215;29;19926;-83
2023/08/22 02:41:12;;;;;;;;;;;;;;;;;;4908593;29;19922;-83
2023/08/22 02:43:37;;;;;;;;;;;;;;;;;;4905938;29;19919;-82
2023/08/22 02:46:03;;;;;;;;;;;;;;;;;;4908943;29;19963;-82
2023/08/22 02:48:28;;;;;;;;;;;;;;;;;;4923729;29;20687;-82
2023/08/22 02:50:53;;;;;;;;;;;;;;;;;;4916072;29;20031;-82
2023/08/22 02:53:18;;;;;;;;;;;;;;;;;;4887948;29;19935;-83
2023/08/22 02:55:47;;;;;;;;;;;;;;;;;;4897707;29;19938;-82
2023/08/22 02:58:12;;;;;;;;;;;;;;;;;;4905156;29;19919;-83
2023/08/22 03:00:38;;;;;;;;;;;;;;;;;;4907068;29;19927;-82
2023/08/22 03:03:05;;;;;;;;;;;;;;;;;;4908931;29;19947;-83
2023/08/22 03:05:31;;;;;;;;;;;;;;;;;;4893056;29;20002;-82
2023/08/22 03:07:56;;;;;;;;;;;;;;;;;;4908018;29;20331;-83
2023/08/22 03:10:21;;;;;;;;;;;;;;;;;;4920572;29;19915;-83
2023/08/22 03:12:50;;;;;;;;;;;;;;;;;;4890187;29;19919;-82
2023/08/22 03:15:15;;;;;;;;;;;;;;;;;;4908660;29;19919;-82
2023/08/22 03:17:40;;;;;;;;;;;;;;;;;;4907172;29;20312;-83
2023/08/22 03:20:09;;;;;;;;;;;;;;;;;;4907896;29;19981;-82
2023/08/22 03:22:34;;;;;;;;;;;;;;;;;;4919048;29;19970;-82
2023/08/22 03:24:59;;;;;;;;;;;;;;;;;;4895110;29;19923;-81
2023/08/22 03:27:25;;;;;;;;;;;;;;;;;;4899486;29;19922;-82
2023/08/22 03:29:50;;;;;;;;;;;;;;;;;;4907943;29;20307;-83
2023/08/22 03:32:18;;;;;;;;;;;;;;;;;;4903808;29;19926;-84
2023/08/22 03:34:43;;;;;;;;;;;;;;;;;;4907169;29;19926;-83
2023/08/22 03:37:08;;;;;;;;;;;;;;;;;;4909126;29;19919;-82
2023/08/22 03:39:34;;;;;;;;;;;;;;;;;;4909155;29;20431;-82
2023/08/22 03:41:59;;;;;;;;;;;;;;;;;;4906467;29;19923;-81
2023/08/22 03:44:24;;;;;;;;;;;;;;;;;;4893531;29;20292;-82
2023/08/22 03:46:50;;;;;;;;;;;;;;;;;;4908900;29;19926;-83
2023/08/22 03:49:15;;;;;;;;;;;;;;;;;;4906686;29;19922;-82
2023/08/22 03:51:41;;;;;;;;;;;;;;;;;;4918493;29;20284;-83
2023/08/22 03:54:06;;;;;;;;;;;;;;;;;;4908171;29;20347;-83
2023/08/22 03:56:31;;;;;;;;;;;;;;;;;;4906296;29;19927;-82
2023/08/22 03:58:58;;;;;;;;;;;;;;;;;;4896208;29;20351;-82
2023/08/22 04:01:23;;;;;;;;;;;;;;;;;;4885330;29;19929;-82
2023/08/22 04:03:48;;;;;;;;;;;;;;;;;;4891861;29;20294;-83
2023/08/22 04:06:13;;;;;;;;;;;;;;;;;;4907991;29;20720;-82
2023/08/22 04:08:39;;;;;;;;;;;;;;;;;;4909813;29;20343;-82
2023/08/22 04:11:04;;;;;;;;;;;;;;;;;;4907734;29;19957;-83
2023/08/22 04:13:29;;;;;;;;;;;;;;;;;;4909294;29;20029;-82
2023/08/22 04:15:55;;;;;;;;;;;;;;;;;;4920286;29;20017;-83
2023/08/22 04:18:20;;;;;;;;;;;;;;;;;;4908269;29;19949;-82
2023/08/22 04:20:45;;;;;;;;;;;;;;;;;;4907042;29;20012;-83
2023/08/22 04:23:10;;;;;;;;;;;;;;;;;;4894080;29;19915;-82
2023/08/22 04:25:36;;;;;;;;;;;;;;;;;;4899529;29;20286;-82
2023/08/22 04:28:01;;;;;;;;;;;;;;;;;;4898047;29;20199;-81
2023/08/22 04:30:27;;;;;;;;;;;;;;;;;;4891715;29;19973;-82
2023/08/22 04:32:56;;;;;;;;;;;;;;;;;;4907226;29;19930;-82
2023/08/22 04:35:21;;;;;;;;;;;;;;;;;;4900731;29;20635;-82
2023/08/22 04:37:50;;;;;;;;;;;;;;;;;;4896823;29;19919;-82
2023/08/22 04:40:15;;;;;;;;;;;;;;;;;;4907785;29;19953;-82
2023/08/22 04:42:40;;;;;;;;;;;;;;;;;;4908060;29;19922;-81
2023/08/22 04:45:06;;;;;;;;;;;;;;;;;;4921839;29;20006;-82
2023/08/22 04:47:31;;;;;;;;;;;;;;;;;;4905111;29;20326;-82
2023/08/22 04:49:58;;;;;;;;;;;;;;;;;;4923007;29;19922;-82
2023/08/22 04:52:23;;;;;;;;;;;;;;;;;;4905787;29;20378;-81
2023/08/22 04:54:48;;;;;;;;;;;;;;;;;;4900176;29;19926;-82
2023/08/22 04:57:14;;;;;;;;;;;;;;;;;;4900351;29;19919;-82
2023/08/22 04:59:39;;;;;;;;;;;;;;;;;;4909744;29;21046;-82
2023/08/22 05:02:05;;;;;;;;;;;;;;;;;;4910790;29;21090;-82
2023/08/22 05:04:30;;;;;;;;;;;;;;;;;;4911300;29;19933;-81
2023/08/22 05:06:55;;;;;;;;;;;;;;;;;;4909264;29;19966;-80
2023/08/22 05:09:20;;;;;;;;;;;;;;;;;;4892096;29;19918;-81
2023/08/22 05:11:46;;;;;;;;;;;;;;;;;;4907646;29;19925;-82
2023/08/22 05:14:11;;;;;;;;;;;;;;;;;;4900104;29;19923;-81
2023/08/22 05:16:38;;;;;;;;;;;;;;;;;;4908065;29;19922;-82
2023/08/22 05:19:06;;;;;;;;;;;;;;;;;;4901191;29;19966;-82
2023/08/22 05:21:31;;;;;;;;;;;;;;;;;;4913429;29;20310;-81
2023/08/22 05:23:56;;;;;;;;;;;;;;;;;;4908739;29;19919;-83
2023/08/22 05:26:21;;;;;;;;;;;;;;;;;;4897571;29;20260;-82
2023/08/22 05:28:47;;;;;;;;;;;;;;;;;;4909466;29;19918;-82
2023/08/22 05:31:19;;;;;;;;;;;;;;;;;;4908112;29;19922;-81
2023/08/22 05:33:46;;;;;;;;;;;;;;;;;;4900777;29;19962;-81
2023/08/22 05:36:12;;;;;;;;;;;;;;;;;;4908254;29;19919;-83
2023/08/22 05:38:37;;;;;;;;;;;;;;;;;;4925453;29;19930;-83
2023/08/22 05:41:02;;;;;;;;;;;;;;;;;;4887933;29;19923;-82
2023/08/22 05:43:27;;;;;;;;;;;;;;;;;;4889736;29;19919;-83
2023/08/22 05:45:53;;;;;;;;;;;;;;;;;;4910299;29;19922;-82
2023/08/22 05:48:18;;;;;;;;;;;;;;;;;;4921720;29;20405;-82
2023/08/22 05:50:43;;;;;;;;;;;;;;;;;;4881910;29;19926;-82
2023/08/22 05:53:08;;;;;;;;;;;;;;;;;;4898637;29;19919;-82
2023/08/22 05:55:36;;;;;;;;;;;;;;;;;;4894161;29;19918;-82
2023/08/22 05:58:02;;;;;;;;;;;;;;;;;;4906343;29;19922;-82
2023/08/22 06:00:27;;;;;;;;;;;;;;;;;;4909601;29;19926;-82
2023/08/22 06:02:53;;;;;;;;;;;;;;;;;;4904285;29;19919;-83
2023/08/22 06:05:18;;;;;;;;;;;;;;;;;;4896514;29;19915;-82
2023/08/22 06:07:43;;;;;;;;;;;;;;;;;;4908469;29;19926;-83
2023/08/22 06:10:09;;;;;;;;;;;;;;;;;;4908177;29;19922;-83
2023/08/22 06:12:39;;;;;;;;;;;;;;;;;;4923992;29;20330;-83
2023/08/22 06:15:06;;;;;;;;;;;;;;;;;;4910961;29;19914;-83
2023/08/22 06:17:32;;;;;;;;;;;;;;;;;;4908823;29;19918;-83
2023/08/22 06:19:57;;;;;;;;;;;;;;;;;;4921962;29;20283;-82
2023/08/22 06:22:23;;;;;;;;;;;;;;;;;;4907164;29;19930;-83
2023/08/22 06:24:48;;;;;;;;;;;;;;;;;;4921931;29;19915;-82
2023/08/22 06:27:13;;;;;;;;;;;;;;;;;;4899885;29;20005;-84
2023/08/22 06:29:38;;;;;;;;;;;;;;;;;;4908194;29;19915;-86
2023/08/22 06:32:04;;;;;;;;;;;;;;;;;;4909080;29;19919;-85
2023/08/22 06:34:30;;;;;;;;;;;;;;;;;;4905838;29;20376;-83
2023/08/22 06:36:55;;;;;;;;;;;;;;;;;;4909865;29;19918;-83
2023/08/22 06:39:21;;;;;;;;;;;;;;;;;;4907977;29;19931;-82
2023/08/22 06:41:46;;;;;;;;;;;;;;;;;;4889976;29;19923;-83
2023/08/22 06:44:12;;;;;;;;;;;;;;;;;;4910779;29;19925;-82
2023/08/22 06:46:38;;;;;;;;;;;;;;;;;;4920372;29;19979;-82
2023/08/22 06:49:03;;;;;;;;;;;;;;;;;;4900279;29;20024;-82
2023/08/22 06:51:28;;;;;;;;;;;;;;;;;;4890353;29;19926;-83
2023/08/22 06:53:54;;;;;;;;;;;;;;;;;;4909791;29;19969;-82
2023/08/22 06:56:19;;;;;;;;;;;;;;;;;;4906121;29;19919;-84
2023/08/22 06:58:45;;;;;;;;;;;;;;;;;;4909507;29;19929;-83
2023/08/22 07:01:10;;;;;;;;;;;;;;;;;;4908339;29;19958;-84
2023/08/22 07:03:35;;;;;;;;;;;;;;;;;;4909124;29;19919;-82
2023/08/22 07:06:00;;;;;;;;;;;;;;;;;;4908427;29;20050;-82
2023/08/22 07:08:26;;;;;;;;;;;;;;;;;;4912788;29;19926;-83
2023/08/22 07:10:51;;;;;;;;;;;;;;;;;;4898993;29;19915;-82
2023/08/22 07:13:16;;;;;;;;;;;;;;;;;;4909167;29;19914;-82
2023/08/22 07:15:43;;;;;;;;;;;;;;;;;;4904424;29;19919;-82
2023/08/22 07:18:08;;;;;;;;;;;;;;;;;;4908105;29;19926;-83
2023/08/22 07:20:40;;;;;;;;;;;;;;;;;;4907129;29;20185;-84
2023/08/22 07:23:05;;;;;;;;;;;;;;;;;;4909963;29;19919;-83
2023/08/22 07:25:30;;;;;;;;;;;;;;;;;;4908283;29;19974;-84
2023/08/22 07:27:55;;;;;;;;;;;;;;;;;;4907913;29;19923;-84
2023/08/22 07:30:21;;;;;;;;;;;;;;;;;;4915153;29;19926;-88
2023/08/22 07:32:46;;;;;;;;;;;;;;;;;;4886155;29;19965;-88
2023/08/22 07:35:11;;;;;;;;;;;;;;;;;;4911141;29;19926;-86
2023/08/22 07:37:37;;;;;;;;;;;;;;;;;;4906523;29;19915;-85
2023/08/22 07:40:04;;;;;;;;;;;;;;;;;;4920472;29;19923;-85
2023/08/22 07:42:30;;;;;;;;;;;;;;;;;;4919753;29;19919;-85
2023/08/22 07:44:55;;;;;;;;;;;;;;;;;;4920016;29;19926;-85
2023/08/22 07:47:20;;;;;;;;;;;;;;;;;;4896771;29;19982;-86
2023/08/22 07:49:48;;;;;;;;;;;;;;;;;;4910333;29;19924;-85
2023/08/22 07:52:13;;;;;;;;;;;;;;;;;;4907768;29;19914;-86
2023/08/22 07:54:39;;;;;;;;;;;;;;;;;;4900248;29;20009;-86
2023/08/22 07:57:04;;;;;;;;;;;;;;;;;;4889122;29;19919;-86
2023/08/22 07:59:30;;;;;;;;;;;;;;;;;;4900362;29;19919;-86
2023/08/22 08:01:55;;;;;;;;;;;;;;;;;;4923481;29;19929;-86
2023/08/22 08:04:21;;;;;;;;;;;;;;;;;;4899433;29;19964;-87
2023/08/22 08:06:47;;;;;;;;;;;;;;;;;;4922534;29;20438;-84
2023/08/22 08:09:13;;;;;;;;;;;;;;;;;;4912120;29;19919;-86
2023/08/22 08:11:38;;;;;;;;;;;;;;;;;;4893979;29;19919;-87
2023/08/22 08:14:03;;;;;;;;;;;;;;;;;;4895549;29;19925;-86
2023/08/22 08:16:29;;;;;;;;;;;;;;;;;;4890402;29;19914;-84
2023/08/22 08:18:54;;;;;;;;;;;;;;;;;;4895048;29;19958;-86
2023/08/22 08:21:20;;;;;;;;;;;;;;;;;;4908280;29;19929;-85
2023/08/22 08:23:45;;;;;;;;;;;;;;;;;;4882973;29;20254;-85
2023/08/22 08:26:11;;;;;;;;;;;;;;;;;;4898712;29;19925;-85
2023/08/22 08:28:36;;;;;;;;;;;;;;;;;;4921249;29;19922;-85
2023/08/22 08:31:02;;;;;;;;;;;;;;;;;;4914781;29;19922;-85
2023/08/22 08:33:29;;;;;;;;;;;;;;;;;;4913186;29;19919;-85
2023/08/22 08:35:54;;;;;;;;;;;;;;;;;;4910624;29;20391;-86
2023/08/22 08:38:20;;;;;;;;;;;;;;;;;;4910033;29;19926;-85
2023/08/22 08:40:45;;;;;;;;;;;;;;;;;;4926664;29;19919;-85
2023/08/22 08:43:11;;;;;;;;;;;;;;;;;;4911393;29;19922;-85
2023/08/22 08:45:36;;;;;;;;;;;;;;;;;;4913216;29;19926;-86
2023/08/22 08:48:02;;;;;;;;;;;;;;;;;;4911953;29;19978;-84
2023/08/22 08:50:28;;;;;;;;;;;;;;;;;;4915951;29;20202;-85
2023/08/22 08:52:53;;;;;;;;;;;;;;;;;;4895047;29;19919;-85
2023/08/22 08:55:18;;;;;;;;;;;;;;;;;;4924643;29;19930;-86
2023/08/22 08:57:44;;;;;;;;;;;;;;;;;;4918596;29;19961;-85
2023/08/22 09:00:09;;;;;;;;;;;;;;;;;;4896601;29;19926;-85
2023/08/22 09:02:35;;;;;;;;;;;;;;;;;;4909571;29;19931;-85
2023/08/22 09:05:23;;;;;;;;;;;;;;;;;;4911425;29;19926;-85
2023/08/22 09:07:48;;;;;;;;;;;;;;;;;;4911555;29;20391;-85
2023/08/22 09:10:13;;;;;;;;;;;;;;;;;;4897117;29;19965;-84
2023/08/22 09:12:38;;;;;;;;;;;;;;;;;;4909567;29;19921;-86
2023/08/22 09:15:07;;;;;;;;;;;;;;;;;;4911559;29;20002;-85
2023/08/22 09:17:33;;;;;;;;;;;;;;;;;;4909250;29;19923;-85
2023/08/22 09:20:01;;;;;;;;;;;;;;;;;;4928683;29;20402;-85
2023/08/22 09:22:31;;;;;;;;;;;;;;;;;;4909597;29;19970;-86
2023/08/22 09:24:57;;;;;;;;;;;;;;;;;;4907508;29;19935;-84
2023/08/22 09:27:25;;;;;;;;;;;;;;;;;;4901412;29;20368;-85
2023/08/22 09:29:51;;;;;;;;;;;;;;;;;;4906506;29;20389;-86
2023/08/22 09:32:24;;;;;;;;;;;;;;;;;;4908064;29;19914;-85
2023/08/22 09:34:53;;;;;;;;;;;;;;;;;;4911429;29;19919;-86
2023/08/22 09:37:30;;;;;;;;;;;;;;;;;;4907688;29;19965;-85
2023/08/22 09:39:56;;;;;;;;;;;;;;;;;;4923072;29;20294;-86
2023/08/22 09:42:21;;;;;;;;;;;;;;;;;;4901534;29;20017;-85
2023/08/22 09:44:46;;;;;;;;;;;;;;;;;;4910620;29;20005;-86
2023/08/22 09:47:12;;;;;;;;;;;;;;;;;;4909506;29;19918;-86
2023/08/22 09:49:37;;;;;;;;;;;;;;;;;;4901965;29;19979;-87
2023/08/22 09:52:03;;;;;;;;;;;;;;;;;;4895942;29;20043;-86
2023/08/22 09:54:28;;;;;;;;;;;;;;;;;;4910154;29;19994;-86
2023/08/22 09:56:53;;;;;;;;;;;;;;;;;;4911162;29;19952;-85
2023/08/22 09:59:19;;;;;;;;;;;;;;;;;;4901798;29;19923;-87
2023/08/22 10:01:44;;;;;;;;;;;;;;;;;;4910988;29;19986;-84
2023/08/22 10:04:10;;;;;;;;;;;;;;;;;;4927863;29;20381;-85
2023/08/22 10:06:36;;;;;;;;;;;;;;;;;;4909875;29;19958;-85
2023/08/22 10:09:09;;;;;;;;;;;;;;;;;;4902948;29;19914;-85
2023/08/22 10:11:35;;;;;;;;;;;;;;;;;;4883463;29;20006;-87
2023/08/22 10:14:01;;;;;;;;;;;;;;;;;;4909558;29;19961;-88
2023/08/22 10:16:32;;;;;;;;;;;;;;;;;;4892638;29;20371;-89
2023/08/22 10:19:01;;;;;;;;;;;;;;;;;;4911380;29;19925;-89
2023/08/22 10:21:30;;;;;;;;;;;;;;;;;;4897014;29;21130;-86
2023/08/22 10:23:57;;;;;;;;;;;;;;;;;;4892185;29;19999;-87
2023/08/22 10:26:22;;;;;;;;;;;;;;;;;;4894267;29;19925;-87
2023/08/22 10:29:12;;;;;;;;;;;;;;;;;;4910735;29;20001;-87
2023/08/22 10:31:56;;;;;;;;;;;;;;;;;;4920238;29;19919;-86
2023/08/22 10:34:21;;;;;;;;;;;;;;;;;;4921759;29;20422;-87
2023/08/22 10:36:56;;;;;;;;;;;;;;;;;;4920487;29;19937;-86
2023/08/22 10:39:37;;;;;;;;;;;;;;;;;;4910281;29;19930;-86
2023/08/22 10:42:02;;;;;;;;;;;;;;;;;;4911003;29;20326;-86
2023/08/22 10:44:30;;;;;;;;;;;;;;;;;;4909464;29;20037;-86
2023/08/22 10:47:05;;;;;;;;;;;;;;;;;;4909658;29;20697;-87
2023/08/22 10:49:31;;;;;;;;;;;;;;;;;;4923160;29;20363;-86
2023/08/22 10:52:15;;;;;;;;;;;;;;;;;;4888815;29;19914;-86
2023/08/22 10:54:55;;;;;;;;;;;;;;;;;;4907021;29;19914;-87
2023/08/22 10:57:21;;;;;;;;;;;;;;;;;;4903414;29;19915;-86
2023/08/22 10:59:58;;;;;;;;;;;;;;;;;;4924544;29;20005;-86
2023/08/22 11:02:24;;;;;;;;;;;;;;;;;;4921229;29;19923;-87
2023/08/22 11:04:49;;;;;;;;;;;;;;;;;;4908596;29;19926;-87
2023/08/22 11:07:14;;;;;;;;;;;;;;;;;;4912015;29;19923;-87
2023/08/22 11:09:48;;;;;;;;;;;;;;;;;;4921115;29;19919;-87
2023/08/22 11:12:17;;;;;;;;;;;;;;;;;;4907451;29;19962;-87
2023/08/22 11:14:43;;;;;;;;;;;;;;;;;;4894502;29;20378;-86
2023/08/22 11:17:08;;;;;;;;;;;;;;;;;;4895080;29;19918;-86
2023/08/22 11:19:34;;;;;;;;;;;;;;;;;;4891451;29;19930;-86
2023/08/22 11:22:00;;;;;;;;;;;;;;;;;;4907968;29;20299;-86
2023/08/22 11:24:26;;;;;;;;;;;;;;;;;;4913215;29;19938;-86
2023/08/22 11:26:52;;;;;;;;;;;;;;;;;;4901544;29;19923;-85
2023/08/22 11:29:21;;;;;;;;;;;;;;;;;;4913312;29;19915;-85
2023/08/22 11:31:46;;;;;;;;;;;;;;;;;;4905868;29;19974;-84
2023/08/22 11:34:11;;;;;;;;;;;;;;;;;;4893710;29;19922;-85
2023/08/22 11:36:37;;;;;;;;;;;;;;;;;;4896921;29;20330;-85
2023/08/22 11:39:07;;;;;;;;;;;;;;;;;;4907238;29;19930;-84
2023/08/22 11:41:33;;;;;;;;;;;;;;;;;;4903496;29;19923;-85
2023/08/22 11:44:00;;;;;;;;;;;;;;;;;;4897966;29;19919;-85
2023/08/22 11:46:26;;;;;;;;;;;;;;;;;;4872283;29;19922;-85
2023/08/22 11:48:52;;;;;;;;;;;;;;;;;;4910202;29;19950;-84
2023/08/22 11:51:18;;;;;;;;;;;;;;;;;;4923354;29;20006;-84
2023/08/22 11:53:44;;;;;;;;;;;;;;;;;;4913925;29;19941;-83
2023/08/22 11:56:09;;;;;;;;;;;;;;;;;;4888866;29;20028;-84
2023/08/22 11:58:35;;;;;;;;;;;;;;;;;;4904544;29;19918;-84
2023/08/22 12:01:00;;;;;;;;;;;;;;;;;;4910391;29;20007;-84
2023/08/22 12:03:37;;;;;;;;;;;;;;;;;;4925126;29;19919;-83
2023/08/22 12:06:10;;;;;;;;;;;;;;;;;;4899728;29;20350;-84
2023/08/22 12:08:35;;;;;;;;;;;;;;;;;;4912550;29;20291;-84
2023/08/22 12:11:01;;;;;;;;;;;;;;;;;;4910427;29;19914;-84
2023/08/22 12:13:26;;;;;;;;;;;;;;;;;;4919111;29;20294;-84
2023/08/22 12:15:52;;;;;;;;;;;;;;;;;;4895049;29;19923;-84
2023/08/22 12:18:17;;;;;;;;;;;;;;;;;;4911682;29;20378;-84
2023/08/22 12:20:43;;;;;;;;;;;;;;;;;;4929319;29;19923;-84
2023/08/22 12:23:09;;;;;;;;;;;;;;;;;;4911127;29;19925;-84
2023/08/22 12:25:35;;;;;;;;;;;;;;;;;;4906890;29;20410;-84
2023/08/22 12:28:03;;;;;;;;;;;;;;;;;;4926518;29;19915;-84
2023/08/22 12:30:29;;;;;;;;;;;;;;;;;;4894343;29;19919;-83
2023/08/22 12:32:55;;;;;;;;;;;;;;;;;;4911492;29;19942;-84
2023/08/22 12:35:20;;;;;;;;;;;;;;;;;;4911012;29;20362;-84
2023/08/22 12:37:48;;;;;;;;;;;;;;;;;;4910964;29;20010;-84
2023/08/22 12:40:15;;;;;;;;;;;;;;;;;;4900564;29;20302;-84
2023/08/22 12:42:41;;;;;;;;;;;;;;;;;;4911255;29;19923;-84
2023/08/22 12:45:10;;;;;;;;;;;;;;;;;;4911218;29;19919;-84
2023/08/22 12:47:35;;;;;;;;;;;;;;;;;;4908604;29;20371;-85
2023/08/22 12:50:04;;;;;;;;;;;;;;;;;;4909551;29;19974;-84
2023/08/22 12:52:29;;;;;;;;;;;;;;;;;;4901872;29;19968;-84
2023/08/22 12:55:00;;;;;;;;;;;;;;;;;;4908058;29;19957;-84
2023/08/22 12:57:25;;;;;;;;;;;;;;;;;;4911030;29;20375;-85
2023/08/22 12:59:51;;;;;;;;;;;;;;;;;;4909408;29;19965;-85
2023/08/22 13:02:16;;;;;;;;;;;;;;;;;;4906919;29;19929;-85
2023/08/22 13:04:41;;;;;;;;;;;;;;;;;;4910037;29;20009;-85
2023/08/22 13:07:10;;;;;;;;;;;;;;;;;;4909412;29;19919;-85
2023/08/22 13:09:35;;;;;;;;;;;;;;;;;;4900568;29;19926;-84
2023/08/22 13:12:00;;;;;;;;;;;;;;;;;;4895399;29;20811;-84
2023/08/22 13:14:26;;;;;;;;;;;;;;;;;;4909257;29;19922;-85
2023/08/22 13:16:51;;;;;;;;;;;;;;;;;;4909928;29;19919;-85
2023/08/22 13:19:17;;;;;;;;;;;;;;;;;;4909896;29;19938;-85
2023/08/22 13:21:42;;;;;;;;;;;;;;;;;;4909386;29;19929;-84
2023/08/22 13:24:07;;;;;;;;;;;;;;;;;;4910724;29;19925;-84
2023/08/22 13:26:33;;;;;;;;;;;;;;;;;;4890629;29;19919;-85
2023/08/22 13:29:01;;;;;;;;;;;;;;;;;;4885172;29;19926;-85
2023/08/22 13:31:26;;;;;;;;;;;;;;;;;;4908158;29;19959;-85
2023/08/22 13:33:51;;;;;;;;;;;;;;;;;;4914412;29;19954;-86
2023/08/22 13:36:16;;;;;;;;;;;;;;;;;;4919507;29;19922;-85
2023/08/22 13:38:42;;;;;;;;;;;;;;;;;;4923062;29;19949;-86
2023/08/22 13:41:07;;;;;;;;;;;;;;;;;;4908434;29;19926;-86
2023/08/22 13:43:32;;;;;;;;;;;;;;;;;;4909909;29;19919;-85
2023/08/22 13:45:57;;;;;;;;;;;;;;;;;;4908866;29;19919;-85
2023/08/22 13:48:23;;;;;;;;;;;;;;;;;;4904050;29;19919;-85
2023/08/22 13:50:51;;;;;;;;;;;;;;;;;;4920151;29;19918;-85
2023/08/22 13:53:16;;;;;;;;;;;;;;;;;;4905815;29;20005;-85
2023/08/22 13:55:42;;;;;;;;;;;;;;;;;;4913038;29;20018;-85
2023/08/22 13:58:07;;;;;;;;;;;;;;;;;;4910429;29;19970;-84
2023/08/22 14:00:35;;;;;;;;;;;;;;;;;;4910371;29;19919;-84
2023/08/22 14:03:01;;;;;;;;;;;;;;;;;;4893007;29;20439;-84
2023/08/22 14:05:26;;;;;;;;;;;;;;;;;;4901350;29;19931;-83
2023/08/22 14:07:51;;;;;;;;;;;;;;;;;;4923611;29;19918;-85
2023/08/22 14:10:22;;;;;;;;;;;;;;;;;;4899589;29;19997;-84
2023/08/22 14:12:47;;;;;;;;;;;;;;;;;;4908532;29;19915;-85
2023/08/22 14:15:12;;;;;;;;;;;;;;;;;;4909617;29;20363;-86
2023/08/22 14:17:37;;;;;;;;;;;;;;;;;;4908152;29;19922;-85
2023/08/22 14:20:04;;;;;;;;;;;;;;;;;;4909019;29;19929;-85
2023/08/22 14:22:29;;;;;;;;;;;;;;;;;;4898561;29;19922;-85
2023/08/22 14:24:55;;;;;;;;;;;;;;;;;;4890883;29;20282;-85
2023/08/22 14:27:20;;;;;;;;;;;;;;;;;;4907299;29;20348;-85
2023/08/22 14:29:46;;;;;;;;;;;;;;;;;;4925287;29;19946;-85
2023/08/22 14:32:13;;;;;;;;;;;;;;;;;;4899727;29;19919;-86
2023/08/22 14:34:39;;;;;;;;;;;;;;;;;;4909781;29;19978;-87
2023/08/22 14:37:04;;;;;;;;;;;;;;;;;;4904955;29;19919;-85
2023/08/22 14:39:29;;;;;;;;;;;;;;;;;;4897024;29;19934;-86
2023/08/22 14:42:00;;;;;;;;;;;;;;;;;;4908689;29;19923;-85
2023/08/22 14:44:25;;;;;;;;;;;;;;;;;;4909725;29;20402;-87
2023/08/22 14:46:52;;;;;;;;;;;;;;;;;;4909053;29;19915;-86
2023/08/22 14:49:17;;;;;;;;;;;;;;;;;;4907244;29;20347;-86
2023/08/22 14:51:42;;;;;;;;;;;;;;;;;;4907874;29;19922;-86
2023/08/22 14:54:09;;;;;;;;;;;;;;;;;;4907521;29;19958;-86
2023/08/22 14:56:35;;;;;;;;;;;;;;;;;;4922779;29;20470;-81
2023/08/22 14:59:01;;;;;;;;;;;;;;;;;;4927650;29;19991;-84
2023/08/22 15:01:26;;;;;;;;;;;;;;;;;;4907249;29;20402;-84
2023/08/22 15:03:51;;;;;;;;;;;;;;;;;;4883031;29;20497;-84
2023/08/22 15:06:17;;;;;;;;;;;;;;;;;;4907073;29;19915;-85
2023/08/22 15:08:43;;;;;;;;;;;;;;;;;;4909946;29;19918;-85
2023/08/22 15:11:12;;;;;;;;;;;;;;;;;;4907394;29;19918;-85
2023/08/22 15:13:37;;;;;;;;;;;;;;;;;;4910619;29;20404;-85
2023/08/22 15:16:03;;;;;;;;;;;;;;;;;;4887044;29;19926;-84
2023/08/22 15:18:28;;;;;;;;;;;;;;;;;;4897952;29;19922;-85
2023/08/22 15:20:54;;;;;;;;;;;;;;;;;;4907556;29;19922;-85
2023/08/22 15:23:21;;;;;;;;;;;;;;;;;;4920623;29;19997;-85
2023/08/22 15:25:50;;;;;;;;;;;;;;;;;;4896429;29;20034;-85
2023/08/22 15:28:15;;;;;;;;;;;;;;;;;;4900429;29;19922;-85
2023/08/22 15:30:40;;;;;;;;;;;;;;;;;;4898475;29;19919;-85
2023/08/22 15:33:06;;;;;;;;;;;;;;;;;;4908004;29;19937;-86
2023/08/22 15:35:36;;;;;;;;;;;;;;;;;;4909576;29;20009;-86
2023/08/22 15:38:01;;;;;;;;;;;;;;;;;;4905816;29;19919;-86
2023/08/22 15:40:27;;;;;;;;;;;;;;;;;;4907023;29;19923;-86
2023/08/22 15:42:52;;;;;;;;;;;;;;;;;;4906866;29;19923;-87
2023/08/22 15:45:17;;;;;;;;;;;;;;;;;;4907009;29;19974;-88
2023/08/22 15:47:46;;;;;;;;;;;;;;;;;;4882143;29;20260;-89
2023/08/22 15:50:11;;;;;;;;;;;;;;;;;;4897225;29;19954;-85
2023/08/22 15:52:36;;;;;;;;;;;;;;;;;;4920317;29;19958;-87
2023/08/22 15:55:02;;;;;;;;;;;;;;;;;;4897584;29;19957;-88
2023/08/22 15:57:27;;;;;;;;;;;;;;;;;;4894736;29;20251;-89
2023/08/22 15:59:52;;;;;;;;;;;;;;;;;;4905998;29;19919;-86
2023/08/22 16:02:17;;;;;;;;;;;;;;;;;;4921743;29;19994;-88
2023/08/22 16:04:43;;;;;;;;;;;;;;;;;;4898100;29;19918;-89
2023/08/22 16:07:08;;;;;;;;;;;;;;;;;;4883957;29;19926;-87
2023/08/22 16:09:34;;;;;;;;;;;;;;;;;;4905430;29;20005;-85
2023/08/22 16:11:59;;;;;;;;;;;;;;;;;;4897774;29;19919;-86
2023/08/22 16:14:24;;;;;;;;;;;;;;;;;;4907925;29;19918;-87
2023/08/22 16:16:50;;;;;;;;;;;;;;;;;;4896415;29;19939;-86
2023/08/22 16:19:15;;;;;;;;;;;;;;;;;;4923434;29;19919;-86
2023/08/22 16:21:49;;;;;;;;;;;;;;;;;;4895000;29;19925;-88
2023/08/22 16:24:15;;;;;;;;;;;;;;;;;;4916844;29;19983;-87
2023/08/22 16:26:40;;;;;;;;;;;;;;;;;;4892913;29;20005;-88
2023/08/22 16:29:07;;;;;;;;;;;;;;;;;;4908462;29;19956;-88
2023/08/22 16:31:33;;;;;;;;;;;;;;;;;;4881016;29;19915;-87
2023/08/22 16:33:58;;;;;;;;;;;;;;;;;;4896205;29;20334;-87
2023/08/22 16:36:23;;;;;;;;;;;;;;;;;;4897233;29;19922;-87
2023/08/22 16:38:48;;;;;;;;;;;;;;;;;;4907847;29;20009;-88